createdAt,value
2022-10-05T00:02:18.417Z,9.20
2022-10-05T00:04:45.448Z,9.10
2022-10-05T00:07:16.873Z,9.10
2022-10-05T00:09:49.866Z,9.10
2022-10-05T00:12:17.401Z,9.10
2022-10-05T00:14:44.573Z,9.10
2022-10-05T00:17:19.418Z,9.10
2022-10-05T00:19:46.567Z,9.00
2022-10-05T00:22:17.587Z,9.00
2022-10-05T00:24:45.139Z,8.90
2022-10-05T00:27:18.661Z,8.90
2022-10-05T00:29:46.145Z,8.90
2022-10-05T00:32:12.971Z,8.80
2022-10-05T00:34:39.820Z,8.90
2022-10-05T00:37:06.460Z,8.90
2022-10-05T00:39:34.175Z,8.90
2022-10-05T00:42:00.787Z,8.90
2022-10-05T00:44:34.761Z,8.80
2022-10-05T00:47:01.435Z,8.80
2022-10-05T00:49:46.849Z,8.70
2022-10-05T00:52:32.584Z,8.70
2022-10-05T00:54:59.290Z,8.70
2022-10-05T00:57:31.500Z,8.60
2022-10-05T01:00:03.772Z,8.60
2022-10-05T01:02:43.484Z,8.50
2022-10-05T01:05:39.964Z,8.50
2022-10-05T01:08:18.965Z,8.40
2022-10-05T01:10:53.339Z,8.40
2022-10-05T01:13:25.775Z,8.40
2022-10-05T01:16:02.526Z,8.50
2022-10-05T01:18:32.241Z,8.60
2022-10-05T01:21:05.182Z,8.60
2022-10-05T01:23:34.831Z,8.60
2022-10-05T01:26:01.447Z,8.70
2022-10-05T01:28:29.523Z,8.70
2022-10-05T01:30:59.586Z,8.70
2022-10-05T01:33:33.818Z,8.70
2022-10-05T01:36:06.350Z,8.70
2022-10-05T01:38:53.617Z,8.80
2022-10-05T01:41:23.376Z,8.90
2022-10-05T01:43:55.481Z,8.90
2022-10-05T01:46:28.485Z,9.00
2022-10-05T01:49:16.794Z,9.00
2022-10-05T01:51:48.024Z,9.10
2022-10-05T01:54:17.672Z,9.10
2022-10-05T01:56:53.467Z,9.20
2022-10-05T01:59:20.170Z,9.10
2022-10-05T02:01:59.794Z,9.10
2022-10-05T02:05:00.388Z,9.10
2022-10-05T02:07:27.380Z,9.10
2022-10-05T02:09:58.279Z,9.10
2022-10-05T02:12:27.310Z,9.10
2022-10-05T02:14:57.734Z,9.00
2022-10-05T02:17:27.570Z,9.00
2022-10-05T02:19:59.818Z,8.90
2022-10-05T02:22:32.723Z,8.80
2022-10-05T02:25:01.348Z,8.80
2022-10-05T02:27:34.593Z,8.80
2022-10-05T02:30:03.733Z,8.70
2022-10-05T02:32:44.944Z,8.70
2022-10-05T02:35:13.763Z,8.70
2022-10-05T02:37:48.240Z,8.60
2022-10-05T02:40:33.724Z,8.50
2022-10-05T02:43:04.281Z,8.50
2022-10-05T02:45:31.563Z,8.60
2022-10-05T02:47:58.267Z,8.70
2022-10-05T02:50:34.138Z,8.80
2022-10-05T02:53:10.409Z,8.70
2022-10-05T02:55:52.148Z,8.80
2022-10-05T02:58:22.686Z,8.90
2022-10-05T03:00:55.506Z,9.00
2022-10-05T03:03:28.026Z,8.90
2022-10-05T03:05:58.771Z,8.90
2022-10-05T03:08:34.294Z,8.80
2022-10-05T03:11:14.993Z,8.80
2022-10-05T03:13:56.330Z,8.70
2022-10-05T03:16:35.445Z,8.70
2022-10-05T03:19:14.844Z,8.70
2022-10-05T03:21:50.345Z,8.60
2022-10-05T03:24:21.007Z,8.50
2022-10-05T03:26:53.987Z,8.40
2022-10-05T03:29:38.293Z,8.40
2022-10-05T03:32:08.662Z,8.20
2022-10-05T03:34:40.566Z,8.10
2022-10-05T03:37:22.805Z,8.10
2022-10-05T03:40:13.311Z,8.00
2022-10-05T03:43:10.472Z,8.00
2022-10-05T03:45:42.639Z,7.90
2022-10-05T03:48:18.005Z,7.90
2022-10-05T03:50:53.982Z,7.80
2022-10-05T03:53:22.102Z,7.80
2022-10-05T03:55:59.597Z,7.80
2022-10-05T03:58:34.587Z,7.70
2022-10-05T04:01:03.682Z,7.60
2022-10-05T04:03:39.721Z,7.60
2022-10-05T04:06:09.767Z,7.50
2022-10-05T04:08:47.781Z,7.50
2022-10-05T04:11:19.785Z,7.50
2022-10-05T04:13:46.536Z,7.60
2022-10-05T04:16:15.079Z,7.50
2022-10-05T04:19:04.151Z,7.60
2022-10-05T04:21:33.770Z,7.60
2022-10-05T04:24:00.557Z,7.60
2022-10-05T04:26:33.448Z,7.70
2022-10-05T04:29:03.758Z,7.80
2022-10-05T04:31:37.986Z,7.80
2022-10-05T04:34:32.400Z,7.80
2022-10-05T04:37:03.186Z,7.80
2022-10-05T04:39:45.352Z,7.80
2022-10-05T04:42:31.035Z,7.80
2022-10-05T04:45:08.224Z,7.70
2022-10-05T04:47:39.571Z,7.70
2022-10-05T04:50:06.448Z,7.60
2022-10-05T04:52:33.132Z,7.60
2022-10-05T04:54:59.930Z,7.60
2022-10-05T04:57:31.649Z,7.70
2022-10-05T05:00:09.085Z,7.70
2022-10-05T05:02:37.188Z,7.60
2022-10-05T05:05:26.777Z,7.60
2022-10-05T05:08:02.104Z,7.60
2022-10-05T05:10:47.315Z,7.40
2022-10-05T05:13:22.680Z,7.30
2022-10-05T05:15:55.620Z,7.30
2022-10-05T05:18:33.887Z,7.20
2022-10-05T05:21:21.785Z,7.20
2022-10-05T05:23:57.612Z,7.10
2022-10-05T05:26:49.798Z,7.10
2022-10-05T05:29:19.791Z,7.10
2022-10-05T05:31:49.314Z,7.10
2022-10-05T05:34:23.921Z,7.20
2022-10-05T05:36:51.042Z,7.20
2022-10-05T05:39:18.546Z,7.20
2022-10-05T05:41:54.349Z,7.30
2022-10-05T05:44:26.521Z,7.30
2022-10-05T05:47:03.911Z,7.40
2022-10-05T05:50:06.345Z,7.40
2022-10-05T05:52:39.128Z,7.60
2022-10-05T05:55:16.634Z,7.90
2022-10-05T05:57:46.844Z,8.20
2022-10-05T06:00:13.933Z,8.60
2022-10-05T06:02:59.235Z,9.10
2022-10-05T06:05:36.144Z,9.80
2022-10-05T06:08:13.383Z,10.50
2022-10-05T06:10:45.179Z,11.00
2022-10-05T06:13:16.553Z,11.40
2022-10-05T06:15:50.791Z,11.70
2022-10-05T06:18:20.325Z,12.00
2022-10-05T06:21:06.899Z,12.10
2022-10-05T06:24:06.901Z,12.20
2022-10-05T06:26:52.428Z,12.20
2022-10-05T06:29:23.041Z,12.20
2022-10-05T06:31:58.857Z,11.90
2022-10-05T06:34:39.844Z,11.60
2022-10-05T06:37:17.228Z,11.30
2022-10-05T06:40:00.740Z,11.20
2022-10-05T06:42:41.475Z,11.30
2022-10-05T06:45:41.880Z,11.70
2022-10-05T06:48:43.780Z,12.30
2022-10-05T06:52:01.234Z,13.00
2022-10-05T06:54:50.815Z,13.60
2022-10-05T06:57:30.075Z,13.90
2022-10-05T07:00:00.651Z,14.20
2022-10-05T07:02:28.224Z,14.50
2022-10-05T07:05:10.563Z,14.60
2022-10-05T07:07:37.646Z,14.70
2022-10-05T07:10:12.969Z,14.70
2022-10-05T07:12:42.667Z,14.90
2022-10-05T07:15:19.381Z,15.30
2022-10-05T07:17:59.551Z,15.60
2022-10-05T07:20:26.361Z,15.80
2022-10-05T07:22:59.210Z,15.70
2022-10-05T07:25:34.600Z,15.40
2022-10-05T07:28:07.153Z,14.90
2022-10-05T07:30:50.858Z,14.50
2022-10-05T07:33:17.568Z,14.20
2022-10-05T07:36:15.731Z,14.00
2022-10-05T07:38:43.297Z,13.90
2022-10-05T07:41:19.307Z,13.90
2022-10-05T07:44:01.430Z,14.00
2022-10-05T07:46:51.776Z,14.00
2022-10-05T07:49:19.248Z,14.10
2022-10-05T07:51:48.274Z,14.00
2022-10-05T07:54:27.560Z,14.20
2022-10-05T07:57:13.489Z,14.40
2022-10-05T07:59:56.741Z,14.60
2022-10-05T08:02:26.996Z,15.00
2022-10-05T08:05:00.234Z,15.30
2022-10-05T08:07:28.514Z,15.70
2022-10-05T08:09:58.003Z,16.60
2022-10-05T08:12:27.652Z,17.50
2022-10-05T08:14:59.094Z,18.30
2022-10-05T08:17:28.903Z,19.50
2022-10-05T08:20:11.653Z,20.30
2022-10-05T08:22:42.829Z,20.40
2022-10-05T08:25:15.320Z,19.90
2022-10-05T08:27:48.077Z,19.20
2022-10-05T08:30:15.782Z,18.60
2022-10-05T08:33:00.757Z,18.40
2022-10-05T08:35:35.195Z,18.70
2022-10-05T08:38:04.179Z,19.60
2022-10-05T08:40:49.912Z,20.90
2022-10-05T08:43:16.650Z,22.30
2022-10-05T08:45:53.746Z,23.30
2022-10-05T08:48:23.761Z,23.60
2022-10-05T08:50:59.503Z,23.50
2022-10-05T08:53:39.274Z,23.50
2022-10-05T08:56:28.587Z,23.30
2022-10-05T08:58:58.772Z,22.90
2022-10-05T09:01:25.423Z,22.70
2022-10-05T09:04:07.472Z,22.90
2022-10-05T09:06:57.663Z,23.30
2022-10-05T09:09:42.969Z,24.20
2022-10-05T09:12:21.630Z,24.60
2022-10-05T09:15:25.005Z,24.60
2022-10-05T09:18:11.720Z,24.80
2022-10-05T09:20:57.109Z,24.70
2022-10-05T09:23:23.790Z,24.70
2022-10-05T09:25:57.980Z,25.00
2022-10-05T09:28:43.432Z,25.10
2022-10-05T09:31:26.206Z,24.50
2022-10-05T09:34:05.466Z,23.40
2022-10-05T09:36:39.166Z,22.60
2022-10-05T09:39:24.815Z,22.20
2022-10-05T09:41:57.726Z,22.00
2022-10-05T09:44:40.450Z,21.90
2022-10-05T09:47:18.277Z,22.10
2022-10-05T09:50:09.054Z,23.30
2022-10-05T09:52:54.647Z,24.50
2022-10-05T09:55:41.624Z,25.10
2022-10-05T09:58:17.701Z,24.90
2022-10-05T10:01:08.962Z,25.10
2022-10-05T10:03:57.446Z,25.70
2022-10-05T10:06:42.682Z,26.50
2022-10-05T10:09:36.489Z,26.80
2022-10-05T10:12:24.101Z,26.50
2022-10-05T10:15:01.931Z,26.10
2022-10-05T10:17:32.578Z,25.80
2022-10-05T10:20:05.380Z,25.40
2022-10-05T10:22:50.124Z,25.30
2022-10-05T10:25:38.023Z,25.70
2022-10-05T10:28:22.402Z,26.00
2022-10-05T10:31:07.946Z,27.00
2022-10-05T10:33:40.517Z,27.10
2022-10-05T10:36:13.692Z,26.80
2022-10-05T10:39:00.606Z,26.60
2022-10-05T10:41:50.729Z,27.00
2022-10-05T10:44:37.318Z,26.60
2022-10-05T10:47:23.013Z,26.00
2022-10-05T10:50:02.112Z,25.10
2022-10-05T10:52:53.834Z,24.40
2022-10-05T10:55:39.193Z,23.90
2022-10-05T10:58:13.642Z,24.80
2022-10-05T11:00:49.552Z,26.10
2022-10-05T11:03:34.663Z,26.90
2022-10-05T11:06:17.271Z,26.90
2022-10-05T11:08:43.971Z,26.50
2022-10-05T11:11:10.643Z,26.60
2022-10-05T11:13:47.620Z,26.90
2022-10-05T11:16:32.893Z,27.10
2022-10-05T11:19:11.179Z,27.10
2022-10-05T11:21:56.542Z,27.20
2022-10-05T11:24:41.887Z,27.00
2022-10-05T11:27:26.964Z,26.30
2022-10-05T11:30:09.100Z,25.80
2022-10-05T11:33:01.507Z,25.70
2022-10-05T11:35:28.259Z,25.70
2022-10-05T11:38:01.102Z,26.40
2022-10-05T11:40:51.645Z,27.40
2022-10-05T11:43:21.136Z,28.20
2022-10-05T11:45:50.831Z,28.40
2022-10-05T11:48:17.516Z,28.50
2022-10-05T11:50:50.270Z,29.10
2022-10-05T11:53:20.129Z,29.00
2022-10-05T11:55:59.797Z,28.50
2022-10-05T11:58:29.960Z,27.90
2022-10-05T12:01:00.687Z,27.80
2022-10-05T12:03:36.586Z,27.40
2022-10-05T12:06:18.277Z,27.00
2022-10-05T12:08:52.473Z,26.90
2022-10-05T12:11:31.849Z,26.80
2022-10-05T12:14:08.036Z,26.70
2022-10-05T12:16:44.958Z,26.50
2022-10-05T12:19:17.548Z,26.00
2022-10-05T12:21:46.590Z,25.70
2022-10-05T12:24:16.565Z,25.40
2022-10-05T12:26:49.853Z,24.90
2022-10-05T12:29:16.484Z,24.90
2022-10-05T12:31:50.611Z,24.90
2022-10-05T12:34:26.678Z,24.80
2022-10-05T12:37:04.143Z,24.70
2022-10-05T12:39:50.602Z,24.80
2022-10-05T12:42:41.766Z,24.70
2022-10-05T12:45:21.850Z,24.70
2022-10-05T12:47:57.562Z,24.80
2022-10-05T12:50:46.466Z,24.80
2022-10-05T12:53:24.836Z,24.80
2022-10-05T12:56:03.837Z,24.60
2022-10-05T12:58:30.609Z,24.70
2022-10-05T13:01:16.032Z,25.00
2022-10-05T13:03:45.976Z,25.30
2022-10-05T13:06:22.091Z,25.40
2022-10-05T13:08:56.552Z,25.70
2022-10-05T13:11:42.805Z,25.90
2022-10-05T13:14:28.251Z,25.90
2022-10-05T13:17:04.422Z,26.10
2022-10-05T13:19:31.125Z,26.20
2022-10-05T13:21:57.780Z,26.40
2022-10-05T13:24:31.281Z,26.10
2022-10-05T13:27:05.111Z,25.90
2022-10-05T13:29:34.872Z,25.70
2022-10-05T13:32:04.558Z,25.60
2022-10-05T13:34:39.099Z,25.70
2022-10-05T13:37:09.022Z,26.00
2022-10-05T13:39:35.855Z,26.00
2022-10-05T13:42:06.606Z,25.90
2022-10-05T13:44:49.493Z,25.70
2022-10-05T13:47:28.384Z,25.80
2022-10-05T13:49:59.759Z,25.80
2022-10-05T13:52:32.042Z,25.90
2022-10-05T13:55:07.084Z,25.80
2022-10-05T13:57:52.574Z,25.80
2022-10-05T14:00:25.620Z,25.70
2022-10-05T14:02:54.290Z,25.70
2022-10-05T14:05:22.755Z,25.50
2022-10-05T14:07:54.166Z,25.50
2022-10-05T14:10:31.714Z,25.50
2022-10-05T14:12:58.432Z,25.60
2022-10-05T14:15:28.207Z,25.70
2022-10-05T14:17:54.932Z,25.70
2022-10-05T14:20:26.164Z,25.50
2022-10-05T14:23:05.454Z,25.40
2022-10-05T14:25:45.775Z,25.30
2022-10-05T14:28:12.547Z,25.30
2022-10-05T14:30:40.431Z,25.10
2022-10-05T14:33:14.312Z,25.00
2022-10-05T14:35:51.171Z,24.90
2022-10-05T14:38:19.914Z,24.80
2022-10-05T14:41:01.970Z,24.70
2022-10-05T14:43:29.468Z,24.50
2022-10-05T14:45:57.719Z,24.60
2022-10-05T14:48:27.950Z,24.50
2022-10-05T14:50:55.911Z,24.50
2022-10-05T14:53:26.260Z,24.50
2022-10-05T14:56:01.923Z,24.70
2022-10-05T14:58:31.497Z,24.80
2022-10-05T15:01:01.341Z,24.90
2022-10-05T15:03:43.181Z,24.80
2022-10-05T15:06:15.925Z,24.70
2022-10-05T15:09:17.635Z,24.70
2022-10-05T15:11:44.636Z,24.40
2022-10-05T15:14:34.462Z,24.20
2022-10-05T15:17:03.280Z,24.00
2022-10-05T15:19:36.728Z,23.90
2022-10-05T15:22:23.864Z,23.70
2022-10-05T15:24:50.523Z,23.60
2022-10-05T15:27:31.259Z,23.50
2022-10-05T15:30:18.295Z,23.60
2022-10-05T15:32:45.021Z,23.50
2022-10-05T15:35:30.626Z,23.30
2022-10-05T15:38:21.115Z,23.10
2022-10-05T15:40:59.130Z,22.90
2022-10-05T15:43:30.598Z,22.80
2022-10-05T15:45:57.437Z,22.60
2022-10-05T15:48:29.180Z,22.30
2022-10-05T15:51:07.262Z,22.00
2022-10-05T15:53:44.000Z,21.70
2022-10-05T15:56:30.083Z,21.50
2022-10-05T15:59:06.928Z,21.30
2022-10-05T16:01:33.834Z,20.90
2022-10-05T16:04:00.576Z,20.50
2022-10-05T16:06:56.295Z,20.20
2022-10-05T16:09:26.217Z,20.00
2022-10-05T16:12:02.442Z,19.80
2022-10-05T16:14:33.046Z,19.70
2022-10-05T16:17:04.998Z,19.60
2022-10-05T16:19:42.710Z,19.40
2022-10-05T16:22:20.563Z,19.10
2022-10-05T16:24:59.593Z,18.90
2022-10-05T16:27:41.740Z,18.60
2022-10-05T16:30:22.528Z,18.40
2022-10-05T16:32:58.363Z,18.20
2022-10-05T16:35:30.846Z,18.10
2022-10-05T16:38:05.534Z,17.90
2022-10-05T16:40:37.991Z,17.80
2022-10-05T16:43:19.756Z,17.70
2022-10-05T16:46:10.053Z,17.60
2022-10-05T16:48:49.674Z,17.50
2022-10-05T16:51:26.509Z,17.40
2022-10-05T16:54:08.588Z,17.30
2022-10-05T16:56:41.337Z,17.20
2022-10-05T16:59:20.374Z,17.10
2022-10-05T17:01:58.565Z,17.00
2022-10-05T17:04:35.586Z,16.90
2022-10-05T17:07:08.333Z,16.80
2022-10-05T17:09:38.043Z,16.70
2022-10-05T17:12:21.266Z,16.70
2022-10-05T17:15:08.782Z,16.60
2022-10-05T17:17:54.082Z,16.50
2022-10-05T17:20:23.885Z,16.40
2022-10-05T17:22:52.269Z,16.30
2022-10-05T17:25:24.332Z,16.30
2022-10-05T17:28:15.367Z,16.20
2022-10-05T17:30:42.189Z,16.10
2022-10-05T17:33:13.488Z,16.10
2022-10-05T17:36:12.300Z,16.00
2022-10-05T17:38:44.876Z,15.90
2022-10-05T17:41:20.683Z,15.80
2022-10-05T17:44:06.136Z,15.70
2022-10-05T17:46:38.284Z,15.60
2022-10-05T17:49:12.540Z,15.50
2022-10-05T17:51:57.728Z,15.40
2022-10-05T17:54:50.318Z,15.40
2022-10-05T17:57:19.405Z,15.20
2022-10-05T17:59:52.963Z,15.20
2022-10-05T18:02:19.938Z,15.20
2022-10-05T18:04:51.183Z,15.20
2022-10-05T18:07:19.040Z,15.20
2022-10-05T18:09:55.165Z,15.10
2022-10-05T18:12:22.793Z,15.10
2022-10-05T18:15:07.938Z,15.10
2022-10-05T18:17:36.867Z,15.00
2022-10-05T18:20:22.528Z,15.00
2022-10-05T18:22:50.620Z,15.00
2022-10-05T18:25:22.872Z,15.10
2022-10-05T18:28:07.856Z,15.20
2022-10-05T18:30:53.212Z,15.40
2022-10-05T18:33:38.990Z,15.60
2022-10-05T18:36:10.718Z,15.80
2022-10-05T18:38:40.524Z,15.90
2022-10-05T18:41:07.163Z,16.10
2022-10-05T18:43:40.868Z,16.10
2022-10-05T18:46:08.137Z,16.20
2022-10-05T18:48:44.303Z,16.10
2022-10-05T18:51:20.522Z,16.10
2022-10-05T18:54:11.476Z,16.10
2022-10-05T18:56:38.143Z,16.10
2022-10-05T18:59:07.894Z,16.00
2022-10-05T19:01:53.860Z,16.00
2022-10-05T19:04:39.462Z,15.90
2022-10-05T19:07:15.412Z,15.80
2022-10-05T19:09:53.747Z,15.80
2022-10-05T19:12:29.359Z,15.70
2022-10-05T19:15:22.532Z,15.70
2022-10-05T19:17:52.392Z,15.70
2022-10-05T19:20:22.156Z,15.80
2022-10-05T19:22:56.564Z,15.80
2022-10-05T19:25:47.481Z,15.80
2022-10-05T19:28:24.885Z,15.80
2022-10-05T19:30:55.133Z,15.90
2022-10-05T19:33:33.513Z,15.80
2022-10-05T19:36:19.335Z,15.90
2022-10-05T19:39:05.140Z,15.80
2022-10-05T19:41:35.563Z,15.80
2022-10-05T19:44:02.314Z,15.80
2022-10-05T19:46:30.774Z,15.80
2022-10-05T19:48:57.758Z,15.80
2022-10-05T19:51:28.800Z,15.80
2022-10-05T19:54:24.932Z,15.90
2022-10-05T19:56:55.676Z,15.90
2022-10-05T19:59:26.538Z,16.00
2022-10-05T20:01:55.352Z,16.00
2022-10-05T20:04:31.557Z,16.10
2022-10-05T20:06:58.860Z,16.20
2022-10-05T20:09:25.522Z,16.20
2022-10-05T20:11:52.558Z,16.20
2022-10-05T20:14:20.361Z,16.20
2022-10-05T20:17:05.874Z,16.20
2022-10-05T20:19:51.269Z,16.20
2022-10-05T20:22:25.887Z,16.20
2022-10-05T20:24:53.761Z,16.20
2022-10-05T20:27:43.607Z,16.30
2022-10-05T20:30:29.225Z,16.20
2022-10-05T20:33:00.638Z,16.20
2022-10-05T20:35:30.450Z,16.00
2022-10-05T20:38:00.837Z,15.90
2022-10-05T20:40:29.173Z,15.80
2022-10-05T20:42:56.567Z,15.60
2022-10-05T20:45:23.286Z,15.50
2022-10-05T20:47:50.778Z,15.40
2022-10-05T20:50:17.703Z,15.30
2022-10-05T20:52:44.643Z,15.20
2022-10-05T20:55:11.957Z,15.10
2022-10-05T20:57:42.157Z,15.10
2022-10-05T21:00:10.576Z,15.10
2022-10-05T21:02:38.044Z,15.00
2022-10-05T21:05:05.215Z,15.10
2022-10-05T21:07:34.287Z,15.00
2022-10-05T21:10:02.294Z,15.00
2022-10-05T21:12:28.983Z,15.00
2022-10-05T21:14:55.702Z,15.00
2022-10-05T21:17:22.335Z,14.90
2022-10-05T21:19:49.031Z,14.90
2022-10-05T21:22:15.658Z,14.90
2022-10-05T21:24:42.345Z,14.80
2022-10-05T21:27:10.168Z,14.80
2022-10-05T21:29:37.162Z,14.80
2022-10-05T21:32:08.387Z,14.80
2022-10-05T21:34:35.227Z,14.80
2022-10-05T21:37:01.871Z,14.80
2022-10-05T21:39:28.506Z,14.90
2022-10-05T21:41:55.217Z,14.90
2022-10-05T21:44:21.995Z,15.00
2022-10-05T21:46:49.085Z,15.00
2022-10-05T21:49:19.549Z,15.00
2022-10-05T21:51:47.215Z,15.00
2022-10-05T21:54:15.214Z,15.20
2022-10-05T21:56:43.521Z,15.30
2022-10-05T21:59:11.745Z,15.30
2022-10-05T22:01:38.414Z,15.40
2022-10-05T22:04:05.983Z,15.50
2022-10-05T22:06:33.452Z,15.60
2022-10-05T22:09:00.197Z,15.70
2022-10-05T22:11:27.931Z,15.70
2022-10-05T22:13:55.274Z,15.80
2022-10-05T22:16:23.728Z,15.90
2022-10-05T22:18:50.575Z,16.10
2022-10-05T22:21:17.268Z,16.10
2022-10-05T22:23:45.316Z,16.20
2022-10-05T22:26:13.238Z,16.20
2022-10-05T22:28:40.412Z,16.20
2022-10-05T22:31:07.892Z,16.20
2022-10-05T22:33:34.665Z,16.20
2022-10-05T22:36:01.595Z,16.30
2022-10-05T22:38:30.322Z,16.20
2022-10-05T22:40:57.710Z,16.20
2022-10-05T22:43:26.946Z,16.10
2022-10-05T22:45:53.943Z,16.20
2022-10-05T22:48:20.636Z,16.20
2022-10-05T22:50:47.361Z,16.20
2022-10-05T22:53:14.254Z,16.20
2022-10-05T22:55:40.967Z,16.30
2022-10-05T22:58:07.647Z,16.40
2022-10-05T23:00:56.509Z,16.50
2022-10-05T23:03:21.337Z,16.60
2022-10-05T23:05:47.980Z,16.60
2022-10-05T23:08:16.021Z,16.60
2022-10-05T23:10:43.440Z,16.70
2022-10-05T23:13:10.172Z,16.70
2022-10-05T23:15:36.790Z,16.70
2022-10-05T23:18:03.510Z,16.70
2022-10-05T23:20:30.191Z,16.70
2022-10-05T23:22:58.898Z,16.80
2022-10-05T23:25:25.644Z,16.80
2022-10-05T23:27:52.323Z,16.80
2022-10-05T23:30:19.004Z,16.70
2022-10-05T23:32:45.723Z,16.70
2022-10-05T23:35:13.037Z,16.60
2022-10-05T23:37:40.543Z,16.60
2022-10-05T23:40:08.899Z,16.60
2022-10-05T23:42:35.795Z,16.60
2022-10-05T23:45:02.567Z,16.70
2022-10-05T23:47:29.513Z,16.70
2022-10-05T23:49:56.372Z,16.70
2022-10-05T23:52:23.171Z,16.60
2022-10-05T23:54:49.856Z,16.50
2022-10-05T23:57:17.905Z,16.50
2022-10-05T23:59:44.915Z,16.40
